sensor_id;sensor_type;location;lat;lon;timestamp;P1;durP1;ratioP1;P2;durP2;ratioP2
13743;SDS011;6943;52.368;9.966;2023-11-19T00:01:41;1.80;;;1.70;;
13743;SDS011;6943;52.368;9.966;2023-11-19T00:04:07;1.53;;;1.37;;
13743;SDS011;6943;52.368;9.966;2023-11-19T00:06:33;1.30;;;1.10;;
13743;SDS011;6943;52.368;9.966;2023-11-19T00:08:59;1.63;;;1.23;;
13743;SDS011;6943;52.368;9.966;2023-11-19T00:11:25;1.50;;;1.37;;
13743;SDS011;6943;52.368;9.966;2023-11-19T00:13:51;1.10;;;1.00;;
13743;SDS011;6943;52.368;9.966;2023-11-19T00:16:17;1.30;;;1.20;;
13743;SDS011;6943;52.368;9.966;2023-11-19T00:18:43;1.30;;;1.20;;
13743;SDS011;6943;52.368;9.966;2023-11-19T00:21:09;1.73;;;1.30;;
13743;SDS011;6943;52.368;9.966;2023-11-19T00:23:35;1.10;;;1.00;;
13743;SDS011;6943;52.368;9.966;2023-11-19T00:26:01;1.67;;;1.40;;
13743;SDS011;6943;52.368;9.966;2023-11-19T00:28:27;2.10;;;1.20;;
13743;SDS011;6943;52.368;9.966;2023-11-19T00:30:53;1.80;;;1.67;;
13743;SDS011;6943;52.368;9.966;2023-11-19T00:33:20;1.53;;;1.43;;
13743;SDS011;6943;52.368;9.966;2023-11-19T00:35:46;1.20;;;1.10;;
13743;SDS011;6943;52.368;9.966;2023-11-19T00:38:12;2.10;;;1.00;;
13743;SDS011;6943;52.368;9.966;2023-11-19T00:40:38;1.10;;;1.00;;
13743;SDS011;6943;52.368;9.966;2023-11-19T00:43:05;0.77;;;0.77;;
13743;SDS011;6943;52.368;9.966;2023-11-19T00:45:32;1.40;;;1.30;;
13743;SDS011;6943;52.368;9.966;2023-11-19T00:47:58;0.90;;;0.80;;
13743;SDS011;6943;52.368;9.966;2023-11-19T00:50:24;1.00;;;0.90;;
13743;SDS011;6943;52.368;9.966;2023-11-19T00:52:50;2.07;;;1.07;;
13743;SDS011;6943;52.368;9.966;2023-11-19T00:55:16;0.47;;;0.47;;
13743;SDS011;6943;52.368;9.966;2023-11-19T00:57:42;1.43;;;0.80;;
13743;SDS011;6943;52.368;9.966;2023-11-19T01:00:08;0.70;;;0.70;;
13743;SDS011;6943;52.368;9.966;2023-11-19T01:02:46;0.97;;;0.80;;
13743;SDS011;6943;52.368;9.966;2023-11-19T01:05:14;0.90;;;0.90;;
13743;SDS011;6943;52.368;9.966;2023-11-19T01:07:40;2.13;;;1.10;;
13743;SDS011;6943;52.368;9.966;2023-11-19T01:10:06;2.13;;;0.80;;
13743;SDS011;6943;52.368;9.966;2023-11-19T01:12:33;0.80;;;0.80;;
13743;SDS011;6943;52.368;9.966;2023-11-19T01:14:59;1.43;;;0.80;;
13743;SDS011;6943;52.368;9.966;2023-11-19T01:17:26;2.53;;;0.80;;
13743;SDS011;6943;52.368;9.966;2023-11-19T01:19:51;1.10;;;0.90;;
13743;SDS011;6943;52.368;9.966;2023-11-19T01:22:17;1.77;;;1.03;;
13743;SDS011;6943;52.368;9.966;2023-11-19T01:24:44;3.43;;;0.70;;
13743;SDS011;6943;52.368;9.966;2023-11-19T01:27:09;0.63;;;0.63;;
13743;SDS011;6943;52.368;9.966;2023-11-19T01:29:35;1.53;;;0.80;;
13743;SDS011;6943;52.368;9.966;2023-11-19T01:32:03;1.33;;;0.70;;
13743;SDS011;6943;52.368;9.966;2023-11-19T01:34:29;0.70;;;0.60;;
13743;SDS011;6943;52.368;9.966;2023-11-19T01:36:55;0.70;;;0.70;;
13743;SDS011;6943;52.368;9.966;2023-11-19T01:39:21;1.00;;;0.70;;
13743;SDS011;6943;52.368;9.966;2023-11-19T01:41:47;0.80;;;0.60;;
13743;SDS011;6943;52.368;9.966;2023-11-19T01:44:13;0.80;;;0.80;;
13743;SDS011;6943;52.368;9.966;2023-11-19T01:46:43;1.63;;;0.70;;
13743;SDS011;6943;52.368;9.966;2023-11-19T01:49:10;0.53;;;0.53;;
13743;SDS011;6943;52.368;9.966;2023-11-19T01:51:36;0.80;;;0.80;;
13743;SDS011;6943;52.368;9.966;2023-11-19T01:54:02;0.93;;;0.80;;
13743;SDS011;6943;52.368;9.966;2023-11-19T01:56:28;0.93;;;0.93;;
13743;SDS011;6943;52.368;9.966;2023-11-19T01:58:55;0.87;;;0.77;;
13743;SDS011;6943;52.368;9.966;2023-11-19T02:01:22;0.57;;;0.50;;
13743;SDS011;6943;52.368;9.966;2023-11-19T02:03:48;0.93;;;0.70;;
13743;SDS011;6943;52.368;9.966;2023-11-19T02:06:14;1.07;;;0.80;;
13743;SDS011;6943;52.368;9.966;2023-11-19T02:08:40;0.80;;;0.80;;
13743;SDS011;6943;52.368;9.966;2023-11-19T02:11:06;0.90;;;0.90;;
13743;SDS011;6943;52.368;9.966;2023-11-19T02:13:32;1.20;;;0.90;;
13743;SDS011;6943;52.368;9.966;2023-11-19T02:16:01;1.00;;;0.90;;
13743;SDS011;6943;52.368;9.966;2023-11-19T02:18:27;0.90;;;0.90;;
13743;SDS011;6943;52.368;9.966;2023-11-19T02:20:54;1.10;;;1.00;;
13743;SDS011;6943;52.368;9.966;2023-11-19T02:23:20;1.00;;;0.90;;
13743;SDS011;6943;52.368;9.966;2023-11-19T02:25:54;1.37;;;1.00;;
13743;SDS011;6943;52.368;9.966;2023-11-19T02:28:23;1.87;;;0.97;;
13743;SDS011;6943;52.368;9.966;2023-11-19T02:30:49;1.20;;;1.10;;
13743;SDS011;6943;52.368;9.966;2023-11-19T02:33:15;1.53;;;1.30;;
13743;SDS011;6943;52.368;9.966;2023-11-19T02:35:41;1.37;;;1.27;;
13743;SDS011;6943;52.368;9.966;2023-11-19T02:38:07;1.57;;;1.20;;
13743;SDS011;6943;52.368;9.966;2023-11-19T02:40:33;1.43;;;1.33;;
13743;SDS011;6943;52.368;9.966;2023-11-19T02:42:59;1.30;;;1.20;;
13743;SDS011;6943;52.368;9.966;2023-11-19T02:45:26;1.37;;;1.20;;
13743;SDS011;6943;52.368;9.966;2023-11-19T02:47:52;1.83;;;1.20;;
13743;SDS011;6943;52.368;9.966;2023-11-19T02:50:20;2.03;;;1.40;;
13743;SDS011;6943;52.368;9.966;2023-11-19T02:52:53;2.40;;;1.33;;
13743;SDS011;6943;52.368;9.966;2023-11-19T02:55:19;1.27;;;1.17;;
13743;SDS011;6943;52.368;9.966;2023-11-19T02:57:45;2.10;;;1.30;;
13743;SDS011;6943;52.368;9.966;2023-11-19T03:00:20;1.20;;;1.10;;
13743;SDS011;6943;52.368;9.966;2023-11-19T03:02:57;1.20;;;0.87;;
13743;SDS011;6943;52.368;9.966;2023-11-19T03:05:42;1.30;;;0.90;;
13743;SDS011;6943;52.368;9.966;2023-11-19T03:08:09;0.77;;;0.73;;
13743;SDS011;6943;52.368;9.966;2023-11-19T03:10:35;0.70;;;0.67;;
13743;SDS011;6943;52.368;9.966;2023-11-19T03:13:01;0.80;;;0.70;;
13743;SDS011;6943;52.368;9.966;2023-11-19T03:15:27;0.60;;;0.60;;
13743;SDS011;6943;52.368;9.966;2023-11-19T03:17:53;0.70;;;0.63;;
13743;SDS011;6943;52.368;9.966;2023-11-19T03:20:19;1.10;;;0.80;;
13743;SDS011;6943;52.368;9.966;2023-11-19T03:22:45;1.40;;;0.90;;
13743;SDS011;6943;52.368;9.966;2023-11-19T03:25:11;1.53;;;1.00;;
13743;SDS011;6943;52.368;9.966;2023-11-19T03:27:38;1.40;;;1.00;;
13743;SDS011;6943;52.368;9.966;2023-11-19T03:30:05;1.13;;;0.90;;
13743;SDS011;6943;52.368;9.966;2023-11-19T03:32:31;1.90;;;1.40;;
13743;SDS011;6943;52.368;9.966;2023-11-19T03:34:58;1.33;;;1.10;;
13743;SDS011;6943;52.368;9.966;2023-11-19T03:37:24;1.30;;;1.00;;
13743;SDS011;6943;52.368;9.966;2023-11-19T03:39:50;1.50;;;1.00;;
13743;SDS011;6943;52.368;9.966;2023-11-19T03:42:18;1.30;;;1.20;;
13743;SDS011;6943;52.368;9.966;2023-11-19T03:44:45;1.30;;;1.20;;
13743;SDS011;6943;52.368;9.966;2023-11-19T03:47:11;1.60;;;1.20;;
13743;SDS011;6943;52.368;9.966;2023-11-19T03:49:37;1.50;;;1.40;;
13743;SDS011;6943;52.368;9.966;2023-11-19T03:52:03;2.00;;;1.40;;
13743;SDS011;6943;52.368;9.966;2023-11-19T03:54:29;1.73;;;1.63;;
13743;SDS011;6943;52.368;9.966;2023-11-19T03:56:55;1.80;;;1.70;;
13743;SDS011;6943;52.368;9.966;2023-11-19T03:59:21;1.90;;;1.80;;
13743;SDS011;6943;52.368;9.966;2023-11-19T04:01:47;2.40;;;1.70;;
13743;SDS011;6943;52.368;9.966;2023-11-19T04:04:13;2.00;;;1.80;;
13743;SDS011;6943;52.368;9.966;2023-11-19T04:06:39;1.97;;;1.83;;
13743;SDS011;6943;52.368;9.966;2023-11-19T04:09:05;2.73;;;2.20;;
13743;SDS011;6943;52.368;9.966;2023-11-19T04:11:31;2.57;;;2.23;;
13743;SDS011;6943;52.368;9.966;2023-11-19T04:13:57;2.60;;;2.40;;
13743;SDS011;6943;52.368;9.966;2023-11-19T04:16:27;2.87;;;2.57;;
13743;SDS011;6943;52.368;9.966;2023-11-19T04:18:53;3.17;;;2.57;;
13743;SDS011;6943;52.368;9.966;2023-11-19T04:21:19;2.73;;;2.53;;
13743;SDS011;6943;52.368;9.966;2023-11-19T04:23:45;3.40;;;2.30;;
13743;SDS011;6943;52.368;9.966;2023-11-19T04:26:11;2.47;;;2.27;;
13743;SDS011;6943;52.368;9.966;2023-11-19T04:28:37;2.40;;;2.20;;
13743;SDS011;6943;52.368;9.966;2023-11-19T04:31:03;3.07;;;2.17;;
13743;SDS011;6943;52.368;9.966;2023-11-19T04:33:30;2.50;;;2.20;;
13743;SDS011;6943;52.368;9.966;2023-11-19T04:35:56;2.23;;;2.00;;
13743;SDS011;6943;52.368;9.966;2023-11-19T04:38:22;3.80;;;2.60;;
13743;SDS011;6943;52.368;9.966;2023-11-19T04:40:48;2.30;;;2.10;;
13743;SDS011;6943;52.368;9.966;2023-11-19T04:43:14;3.10;;;2.47;;
13743;SDS011;6943;52.368;9.966;2023-11-19T04:45:40;2.50;;;2.30;;
13743;SDS011;6943;52.368;9.966;2023-11-19T04:48:06;3.03;;;2.10;;
13743;SDS011;6943;52.368;9.966;2023-11-19T04:50:34;2.70;;;2.50;;
13743;SDS011;6943;52.368;9.966;2023-11-19T04:52:59;2.70;;;2.50;;
13743;SDS011;6943;52.368;9.966;2023-11-19T04:55:25;4.00;;;2.87;;
13743;SDS011;6943;52.368;9.966;2023-11-19T04:57:53;3.00;;;2.60;;
13743;SDS011;6943;52.368;9.966;2023-11-19T05:00:19;2.40;;;2.20;;
13743;SDS011;6943;52.368;9.966;2023-11-19T05:02:46;2.37;;;2.10;;
13743;SDS011;6943;52.368;9.966;2023-11-19T05:05:12;4.00;;;3.10;;
13743;SDS011;6943;52.368;9.966;2023-11-19T05:07:38;3.80;;;2.70;;
13743;SDS011;6943;52.368;9.966;2023-11-19T05:10:04;3.43;;;3.13;;
13743;SDS011;6943;52.368;9.966;2023-11-19T05:12:31;3.70;;;3.03;;
13743;SDS011;6943;52.368;9.966;2023-11-19T05:14:57;4.83;;;3.37;;
13743;SDS011;6943;52.368;9.966;2023-11-19T05:17:23;5.10;;;3.10;;
13743;SDS011;6943;52.368;9.966;2023-11-19T05:19:49;7.10;;;4.20;;
13743;SDS011;6943;52.368;9.966;2023-11-19T05:22:15;5.27;;;4.17;;
13743;SDS011;6943;52.368;9.966;2023-11-19T05:24:41;6.97;;;4.90;;
13743;SDS011;6943;52.368;9.966;2023-11-19T05:27:07;5.90;;;4.47;;
13743;SDS011;6943;52.368;9.966;2023-11-19T05:29:33;7.17;;;4.63;;
13743;SDS011;6943;52.368;9.966;2023-11-19T05:31:59;4.97;;;4.47;;
13743;SDS011;6943;52.368;9.966;2023-11-19T05:34:26;6.33;;;5.43;;
13743;SDS011;6943;52.368;9.966;2023-11-19T05:36:52;6.20;;;4.40;;
13743;SDS011;6943;52.368;9.966;2023-11-19T05:39:18;6.90;;;4.20;;
13743;SDS011;6943;52.368;9.966;2023-11-19T05:41:45;5.53;;;4.53;;
13743;SDS011;6943;52.368;9.966;2023-11-19T05:44:11;8.37;;;4.63;;
13743;SDS011;6943;52.368;9.966;2023-11-19T05:46:36;6.60;;;4.40;;
13743;SDS011;6943;52.368;9.966;2023-11-19T05:49:07;6.97;;;5.00;;
13743;SDS011;6943;52.368;9.966;2023-11-19T05:51:35;6.73;;;5.07;;
13743;SDS011;6943;52.368;9.966;2023-11-19T05:54:02;7.27;;;5.17;;
13743;SDS011;6943;52.368;9.966;2023-11-19T05:56:28;7.00;;;4.83;;
13743;SDS011;6943;52.368;9.966;2023-11-19T05:58:57;8.33;;;5.47;;
13743;SDS011;6943;52.368;9.966;2023-11-19T06:01:25;8.60;;;5.23;;
13743;SDS011;6943;52.368;9.966;2023-11-19T06:03:51;6.33;;;5.03;;
13743;SDS011;6943;52.368;9.966;2023-11-19T06:06:17;8.93;;;5.90;;
13743;SDS011;6943;52.368;9.966;2023-11-19T06:08:43;6.13;;;5.03;;
13743;SDS011;6943;52.368;9.966;2023-11-19T06:11:10;8.67;;;5.53;;
13743;SDS011;6943;52.368;9.966;2023-11-19T06:13:39;7.30;;;5.33;;
13743;SDS011;6943;52.368;9.966;2023-11-19T06:16:05;7.93;;;5.80;;
13743;SDS011;6943;52.368;9.966;2023-11-19T06:18:32;8.80;;;5.60;;
13743;SDS011;6943;52.368;9.966;2023-11-19T06:20:58;8.83;;;6.30;;
13743;SDS011;6943;52.368;9.966;2023-11-19T06:23:24;10.77;;;5.83;;
13743;SDS011;6943;52.368;9.966;2023-11-19T06:25:50;8.70;;;7.03;;
13743;SDS011;6943;52.368;9.966;2023-11-19T06:28:16;8.93;;;7.07;;
13743;SDS011;6943;52.368;9.966;2023-11-19T06:30:42;7.73;;;6.53;;
13743;SDS011;6943;52.368;9.966;2023-11-19T06:33:08;9.90;;;7.30;;
13743;SDS011;6943;52.368;9.966;2023-11-19T06:35:34;11.80;;;7.33;;
13743;SDS011;6943;52.368;9.966;2023-11-19T06:38:03;11.90;;;7.83;;
13743;SDS011;6943;52.368;9.966;2023-11-19T06:40:30;10.20;;;7.80;;
13743;SDS011;6943;52.368;9.966;2023-11-19T06:42:56;9.03;;;6.80;;
13743;SDS011;6943;52.368;9.966;2023-11-19T06:45:22;10.57;;;6.77;;
13743;SDS011;6943;52.368;9.966;2023-11-19T06:47:48;14.63;;;7.60;;
13743;SDS011;6943;52.368;9.966;2023-11-19T06:50:14;11.50;;;6.80;;
13743;SDS011;6943;52.368;9.966;2023-11-19T06:52:40;10.33;;;7.93;;
13743;SDS011;6943;52.368;9.966;2023-11-19T06:55:06;10.27;;;7.10;;
13743;SDS011;6943;52.368;9.966;2023-11-19T06:57:32;13.67;;;8.10;;
13743;SDS011;6943;52.368;9.966;2023-11-19T06:59:58;11.97;;;7.33;;
13743;SDS011;6943;52.368;9.966;2023-11-19T07:02:24;10.37;;;7.73;;
13743;SDS011;6943;52.368;9.966;2023-11-19T07:04:51;13.33;;;8.10;;
13743;SDS011;6943;52.368;9.966;2023-11-19T07:07:17;14.20;;;8.73;;
13743;SDS011;6943;52.368;9.966;2023-11-19T07:09:43;12.57;;;7.70;;
13743;SDS011;6943;52.368;9.966;2023-11-19T07:12:09;10.67;;;7.00;;
13743;SDS011;6943;52.368;9.966;2023-11-19T07:14:35;19.00;;;7.07;;
13743;SDS011;6943;52.368;9.966;2023-11-19T07:17:01;19.13;;;6.50;;
13743;SDS011;6943;52.368;9.966;2023-11-19T07:19:27;12.93;;;6.07;;
13743;SDS011;6943;52.368;9.966;2023-11-19T07:21:53;14.30;;;5.30;;
13743;SDS011;6943;52.368;9.966;2023-11-19T07:24:19;15.23;;;6.23;;
13743;SDS011;6943;52.368;9.966;2023-11-19T07:26:46;11.57;;;5.33;;
13743;SDS011;6943;52.368;9.966;2023-11-19T07:29:13;14.57;;;5.90;;
13743;SDS011;6943;52.368;9.966;2023-11-19T07:31:41;15.60;;;6.27;;
13743;SDS011;6943;52.368;9.966;2023-11-19T07:34:09;14.23;;;5.20;;
13743;SDS011;6943;52.368;9.966;2023-11-19T07:36:35;12.73;;;4.30;;
13743;SDS011;6943;52.368;9.966;2023-11-19T07:39:01;14.87;;;5.73;;
13743;SDS011;6943;52.368;9.966;2023-11-19T07:41:27;15.63;;;4.80;;
13743;SDS011;6943;52.368;9.966;2023-11-19T07:43:54;13.53;;;4.17;;
13743;SDS011;6943;52.368;9.966;2023-11-19T07:46:20;11.97;;;3.93;;
13743;SDS011;6943;52.368;9.966;2023-11-19T07:48:46;16.23;;;4.40;;
13743;SDS011;6943;52.368;9.966;2023-11-19T07:51:13;18.67;;;4.43;;
13743;SDS011;6943;52.368;9.966;2023-11-19T07:53:39;11.27;;;4.13;;
13743;SDS011;6943;52.368;9.966;2023-11-19T07:56:05;18.83;;;4.23;;
13743;SDS011;6943;52.368;9.966;2023-11-19T07:58:31;15.27;;;4.30;;
13743;SDS011;6943;52.368;9.966;2023-11-19T08:00:57;15.20;;;3.43;;
13743;SDS011;6943;52.368;9.966;2023-11-19T08:03:23;14.67;;;4.10;;
13743;SDS011;6943;52.368;9.966;2023-11-19T08:05:49;15.10;;;4.70;;
13743;SDS011;6943;52.368;9.966;2023-11-19T08:08:15;15.43;;;4.10;;
13743;SDS011;6943;52.368;9.966;2023-11-19T08:10:42;14.80;;;3.63;;
13743;SDS011;6943;52.368;9.966;2023-11-19T08:13:12;15.33;;;4.10;;
13743;SDS011;6943;52.368;9.966;2023-11-19T08:15:38;14.27;;;3.90;;
13743;SDS011;6943;52.368;9.966;2023-11-19T08:18:05;14.80;;;3.53;;
13743;SDS011;6943;52.368;9.966;2023-11-19T08:20:32;13.07;;;3.90;;
13743;SDS011;6943;52.368;9.966;2023-11-19T08:22:58;13.30;;;3.30;;
13743;SDS011;6943;52.368;9.966;2023-11-19T08:25:24;17.13;;;4.03;;
13743;SDS011;6943;52.368;9.966;2023-11-19T08:27:50;11.43;;;3.77;;
13743;SDS011;6943;52.368;9.966;2023-11-19T08:30:17;19.80;;;4.20;;
13743;SDS011;6943;52.368;9.966;2023-11-19T08:32:43;18.60;;;3.77;;
13743;SDS011;6943;52.368;9.966;2023-11-19T08:35:08;15.03;;;4.67;;
13743;SDS011;6943;52.368;9.966;2023-11-19T08:37:35;15.50;;;4.07;;
13743;SDS011;6943;52.368;9.966;2023-11-19T08:40:02;19.27;;;3.90;;
13743;SDS011;6943;52.368;9.966;2023-11-19T08:42:29;15.37;;;4.10;;
13743;SDS011;6943;52.368;9.966;2023-11-19T08:44:55;16.27;;;4.17;;
13743;SDS011;6943;52.368;9.966;2023-11-19T08:47:21;16.23;;;4.70;;
13743;SDS011;6943;52.368;9.966;2023-11-19T08:49:48;17.03;;;4.40;;
13743;SDS011;6943;52.368;9.966;2023-11-19T08:52:13;15.23;;;4.10;;
13743;SDS011;6943;52.368;9.966;2023-11-19T08:54:43;12.60;;;3.67;;
13743;SDS011;6943;52.368;9.966;2023-11-19T08:57:09;18.40;;;5.23;;
13743;SDS011;6943;52.368;9.966;2023-11-19T08:59:35;19.87;;;5.60;;
13743;SDS011;6943;52.368;9.966;2023-11-19T09:02:02;18.07;;;4.23;;
13743;SDS011;6943;52.368;9.966;2023-11-19T09:04:28;16.03;;;3.73;;
13743;SDS011;6943;52.368;9.966;2023-11-19T09:06:54;16.73;;;4.20;;
13743;SDS011;6943;52.368;9.966;2023-11-19T09:09:20;19.33;;;4.80;;
13743;SDS011;6943;52.368;9.966;2023-11-19T09:11:46;19.60;;;5.23;;
13743;SDS011;6943;52.368;9.966;2023-11-19T09:14:12;19.20;;;4.67;;
13743;SDS011;6943;52.368;9.966;2023-11-19T09:16:38;16.03;;;4.40;;
13743;SDS011;6943;52.368;9.966;2023-11-19T09:19:04;17.93;;;4.73;;
13743;SDS011;6943;52.368;9.966;2023-11-19T09:21:30;18.00;;;4.37;;
13743;SDS011;6943;52.368;9.966;2023-11-19T09:23:56;14.97;;;4.33;;
13743;SDS011;6943;52.368;9.966;2023-11-19T09:26:22;22.70;;;4.60;;
13743;SDS011;6943;52.368;9.966;2023-11-19T09:28:48;18.17;;;4.70;;
13743;SDS011;6943;52.368;9.966;2023-11-19T09:31:14;18.40;;;4.00;;
13743;SDS011;6943;52.368;9.966;2023-11-19T09:33:40;17.20;;;4.13;;
13743;SDS011;6943;52.368;9.966;2023-11-19T09:36:08;20.50;;;4.70;;
13743;SDS011;6943;52.368;9.966;2023-11-19T09:38:35;21.47;;;5.43;;
13743;SDS011;6943;52.368;9.966;2023-11-19T09:41:05;18.07;;;4.50;;
13743;SDS011;6943;52.368;9.966;2023-11-19T09:43:34;16.93;;;4.63;;
13743;SDS011;6943;52.368;9.966;2023-11-19T09:46:04;20.13;;;5.00;;
13743;SDS011;6943;52.368;9.966;2023-11-19T09:48:35;18.27;;;4.70;;
13743;SDS011;6943;52.368;9.966;2023-11-19T09:51:08;17.80;;;4.63;;
13743;SDS011;6943;52.368;9.966;2023-11-19T09:53:34;21.80;;;4.77;;
13743;SDS011;6943;52.368;9.966;2023-11-19T09:56:01;21.97;;;4.67;;
13743;SDS011;6943;52.368;9.966;2023-11-19T09:58:28;16.63;;;4.37;;
13743;SDS011;6943;52.368;9.966;2023-11-19T10:00:55;20.10;;;5.40;;
13743;SDS011;6943;52.368;9.966;2023-11-19T10:03:23;17.10;;;5.03;;
13743;SDS011;6943;52.368;9.966;2023-11-19T10:05:49;17.00;;;4.63;;
13743;SDS011;6943;52.368;9.966;2023-11-19T10:08:15;21.70;;;4.83;;
13743;SDS011;6943;52.368;9.966;2023-11-19T10:10:42;18.10;;;4.77;;
13743;SDS011;6943;52.368;9.966;2023-11-19T10:13:08;19.50;;;4.63;;
13743;SDS011;6943;52.368;9.966;2023-11-19T10:15:36;19.90;;;4.50;;
13743;SDS011;6943;52.368;9.966;2023-11-19T10:18:02;22.80;;;5.47;;
13743;SDS011;6943;52.368;9.966;2023-11-19T10:20:37;16.93;;;5.47;;
13743;SDS011;6943;52.368;9.966;2023-11-19T10:23:03;22.47;;;5.20;;
13743;SDS011;6943;52.368;9.966;2023-11-19T10:25:29;23.30;;;5.10;;
13743;SDS011;6943;52.368;9.966;2023-11-19T10:27:55;15.23;;;4.93;;
13743;SDS011;6943;52.368;9.966;2023-11-19T10:30:29;23.83;;;4.97;;
13743;SDS011;6943;52.368;9.966;2023-11-19T10:33:08;18.43;;;4.97;;
13743;SDS011;6943;52.368;9.966;2023-11-19T10:35:35;19.20;;;4.47;;
13743;SDS011;6943;52.368;9.966;2023-11-19T10:38:13;14.67;;;4.17;;
13743;SDS011;6943;52.368;9.966;2023-11-19T10:40:39;16.33;;;4.20;;
13743;SDS011;6943;52.368;9.966;2023-11-19T10:43:05;13.13;;;3.90;;
13743;SDS011;6943;52.368;9.966;2023-11-19T10:45:32;21.77;;;4.40;;
13743;SDS011;6943;52.368;9.966;2023-11-19T10:47:59;23.53;;;4.77;;
13743;SDS011;6943;52.368;9.966;2023-11-19T10:50:25;16.23;;;4.47;;
13743;SDS011;6943;52.368;9.966;2023-11-19T10:52:52;17.73;;;4.50;;
13743;SDS011;6943;52.368;9.966;2023-11-19T10:55:25;16.00;;;4.00;;
13743;SDS011;6943;52.368;9.966;2023-11-19T10:57:52;13.53;;;3.83;;
13743;SDS011;6943;52.368;9.966;2023-11-19T11:00:18;12.10;;;3.83;;
13743;SDS011;6943;52.368;9.966;2023-11-19T11:02:45;19.50;;;4.80;;
13743;SDS011;6943;52.368;9.966;2023-11-19T11:05:16;13.90;;;3.80;;
13743;SDS011;6943;52.368;9.966;2023-11-19T11:07:42;17.23;;;4.57;;
13743;SDS011;6943;52.368;9.966;2023-11-19T11:10:09;15.23;;;4.43;;
13743;SDS011;6943;52.368;9.966;2023-11-19T11:12:36;20.57;;;4.97;;
13743;SDS011;6943;52.368;9.966;2023-11-19T11:15:04;13.70;;;3.93;;
13743;SDS011;6943;52.368;9.966;2023-11-19T11:17:31;17.77;;;5.37;;
13743;SDS011;6943;52.368;9.966;2023-11-19T11:19:57;9.93;;;3.93;;
13743;SDS011;6943;52.368;9.966;2023-11-19T11:22:23;19.03;;;4.00;;
13743;SDS011;6943;52.368;9.966;2023-11-19T11:32:40;16.37;;;4.30;;
13743;SDS011;6943;52.368;9.966;2023-11-19T11:35:23;19.30;;;4.13;;
13743;SDS011;6943;52.368;9.966;2023-11-19T11:37:53;20.93;;;5.13;;
13743;SDS011;6943;52.368;9.966;2023-11-19T11:40:21;15.20;;;4.37;;
13743;SDS011;6943;52.368;9.966;2023-11-19T11:42:48;19.90;;;4.77;;
13743;SDS011;6943;52.368;9.966;2023-11-19T11:45:16;15.80;;;4.87;;
13743;SDS011;6943;52.368;9.966;2023-11-19T11:50:09;14.83;;;4.00;;
13743;SDS011;6943;52.368;9.966;2023-11-19T11:55:26;14.23;;;4.17;;
13743;SDS011;6943;52.368;9.966;2023-11-19T11:57:52;21.23;;;4.80;;
13743;SDS011;6943;52.368;9.966;2023-11-19T12:00:22;16.10;;;5.03;;
13743;SDS011;6943;52.368;9.966;2023-11-19T12:02:52;20.53;;;3.97;;
13743;SDS011;6943;52.368;9.966;2023-11-19T12:05:18;15.10;;;4.20;;
13743;SDS011;6943;52.368;9.966;2023-11-19T12:07:54;16.63;;;4.70;;
13743;SDS011;6943;52.368;9.966;2023-11-19T12:10:20;24.07;;;5.00;;
13743;SDS011;6943;52.368;9.966;2023-11-19T12:12:47;16.60;;;4.50;;
13743;SDS011;6943;52.368;9.966;2023-11-19T12:15:13;16.07;;;4.53;;
13743;SDS011;6943;52.368;9.966;2023-11-19T12:17:50;25.13;;;5.47;;
13743;SDS011;6943;52.368;9.966;2023-11-19T12:20:17;18.67;;;4.90;;
13743;SDS011;6943;52.368;9.966;2023-11-19T12:22:44;18.37;;;4.87;;
13743;SDS011;6943;52.368;9.966;2023-11-19T12:25:10;22.10;;;5.77;;
13743;SDS011;6943;52.368;9.966;2023-11-19T12:27:40;18.57;;;4.80;;
13743;SDS011;6943;52.368;9.966;2023-11-19T12:30:07;20.37;;;5.37;;
13743;SDS011;6943;52.368;9.966;2023-11-19T12:32:42;18.17;;;4.57;;
13743;SDS011;6943;52.368;9.966;2023-11-19T12:35:09;19.77;;;4.93;;
13743;SDS011;6943;52.368;9.966;2023-11-19T12:37:45;19.43;;;4.27;;
13743;SDS011;6943;52.368;9.966;2023-11-19T12:40:23;17.20;;;5.03;;
13743;SDS011;6943;52.368;9.966;2023-11-19T12:42:53;18.87;;;3.83;;
13743;SDS011;6943;52.368;9.966;2023-11-19T12:45:19;18.00;;;4.43;;
13743;SDS011;6943;52.368;9.966;2023-11-19T12:47:46;19.33;;;5.03;;
13743;SDS011;6943;52.368;9.966;2023-11-19T12:50:14;17.57;;;4.63;;
13743;SDS011;6943;52.368;9.966;2023-11-19T12:52:40;19.27;;;4.53;;
13743;SDS011;6943;52.368;9.966;2023-11-19T12:55:26;18.27;;;4.50;;
13743;SDS011;6943;52.368;9.966;2023-11-19T12:57:52;21.53;;;5.27;;
13743;SDS011;6943;52.368;9.966;2023-11-19T13:00:20;20.60;;;6.03;;
13743;SDS011;6943;52.368;9.966;2023-11-19T13:02:47;18.30;;;4.67;;
13743;SDS011;6943;52.368;9.966;2023-11-19T13:05:20;19.77;;;4.77;;
13743;SDS011;6943;52.368;9.966;2023-11-19T13:07:46;18.83;;;4.37;;
13743;SDS011;6943;52.368;9.966;2023-11-19T13:10:12;18.33;;;4.20;;
13743;SDS011;6943;52.368;9.966;2023-11-19T13:12:38;12.83;;;4.20;;
13743;SDS011;6943;52.368;9.966;2023-11-19T13:15:04;17.87;;;4.00;;
13743;SDS011;6943;52.368;9.966;2023-11-19T13:17:30;17.10;;;4.13;;
13743;SDS011;6943;52.368;9.966;2023-11-19T13:19:56;14.70;;;4.03;;
13743;SDS011;6943;52.368;9.966;2023-11-19T13:22:22;13.23;;;3.57;;
13743;SDS011;6943;52.368;9.966;2023-11-19T13:24:48;16.73;;;4.27;;
13743;SDS011;6943;52.368;9.966;2023-11-19T13:27:14;14.73;;;3.70;;
13743;SDS011;6943;52.368;9.966;2023-11-19T13:29:40;15.33;;;3.60;;
13743;SDS011;6943;52.368;9.966;2023-11-19T13:32:06;11.47;;;3.30;;
13743;SDS011;6943;52.368;9.966;2023-11-19T13:34:33;20.77;;;4.17;;
13743;SDS011;6943;52.368;9.966;2023-11-19T13:36:59;10.63;;;3.77;;
13743;SDS011;6943;52.368;9.966;2023-11-19T13:39:25;12.80;;;4.00;;
13743;SDS011;6943;52.368;9.966;2023-11-19T13:41:51;12.70;;;3.73;;
13743;SDS011;6943;52.368;9.966;2023-11-19T13:44:17;16.03;;;4.77;;
13743;SDS011;6943;52.368;9.966;2023-11-19T13:46:46;16.47;;;3.67;;
13743;SDS011;6943;52.368;9.966;2023-11-19T13:49:12;15.70;;;4.17;;
13743;SDS011;6943;52.368;9.966;2023-11-19T13:51:38;15.93;;;3.57;;
13743;SDS011;6943;52.368;9.966;2023-11-19T13:54:04;19.27;;;4.47;;
13743;SDS011;6943;52.368;9.966;2023-11-19T13:56:30;18.37;;;4.83;;
13743;SDS011;6943;52.368;9.966;2023-11-19T13:58:56;15.07;;;4.00;;
13743;SDS011;6943;52.368;9.966;2023-11-19T14:01:22;17.37;;;3.70;;
13743;SDS011;6943;52.368;9.966;2023-11-19T14:03:48;13.30;;;3.97;;
13743;SDS011;6943;52.368;9.966;2023-11-19T14:06:14;14.43;;;4.70;;
13743;SDS011;6943;52.368;9.966;2023-11-19T14:08:40;18.97;;;4.20;;
13743;SDS011;6943;52.368;9.966;2023-11-19T14:11:06;15.23;;;4.50;;
13743;SDS011;6943;52.368;9.966;2023-11-19T14:13:32;14.80;;;3.97;;
13743;SDS011;6943;52.368;9.966;2023-11-19T14:15:59;21.67;;;4.50;;
13743;SDS011;6943;52.368;9.966;2023-11-19T14:18:25;16.67;;;3.90;;
13743;SDS011;6943;52.368;9.966;2023-11-19T14:20:51;15.83;;;3.63;;
13743;SDS011;6943;52.368;9.966;2023-11-19T14:23:17;15.37;;;4.23;;
13743;SDS011;6943;52.368;9.966;2023-11-19T14:25:43;17.40;;;4.87;;
13743;SDS011;6943;52.368;9.966;2023-11-19T14:28:09;16.97;;;4.27;;
13743;SDS011;6943;52.368;9.966;2023-11-19T14:30:35;23.03;;;4.77;;
13743;SDS011;6943;52.368;9.966;2023-11-19T14:33:01;17.30;;;4.47;;
13743;SDS011;6943;52.368;9.966;2023-11-19T14:35:28;21.07;;;4.07;;
13743;SDS011;6943;52.368;9.966;2023-11-19T14:37:55;16.50;;;4.00;;
13743;SDS011;6943;52.368;9.966;2023-11-19T14:40:21;15.30;;;4.33;;
13743;SDS011;6943;52.368;9.966;2023-11-19T14:42:47;17.10;;;4.20;;
13743;SDS011;6943;52.368;9.966;2023-11-19T14:45:13;15.23;;;4.87;;
13743;SDS011;6943;52.368;9.966;2023-11-19T14:47:39;19.97;;;4.67;;
13743;SDS011;6943;52.368;9.966;2023-11-19T14:50:05;22.77;;;5.67;;
13743;SDS011;6943;52.368;9.966;2023-11-19T14:52:31;16.23;;;4.70;;
13743;SDS011;6943;52.368;9.966;2023-11-19T14:54:57;12.10;;;4.23;;
13743;SDS011;6943;52.368;9.966;2023-11-19T14:57:25;17.77;;;4.50;;
13743;SDS011;6943;52.368;9.966;2023-11-19T14:59:51;20.70;;;5.30;;
13743;SDS011;6943;52.368;9.966;2023-11-19T15:02:17;16.40;;;4.03;;
13743;SDS011;6943;52.368;9.966;2023-11-19T15:04:44;16.73;;;4.20;;